ENTO/TRF METAR and TAF weather

Enter ICAO airport designator
Station Type Date Time Source
ENTO METAR 2020/04/02 22:20 UTC NOAA

ENTO 022220Z AUTO 31009KT 280V350 9999 NCD 03/M07 Q0984


Station Type Date Time Source
ENTO Decoded METAR 2020/04/02 22:20 UTC NOAA

Torp, Norway (ENTO) 59-12N 010-16E 88M
Apr 02, 2020 - 06:20 PM EDT / 2020.04.02 2220 UTC
Wind: from the NW (310 degrees) at 10 MPH (9 KT) (direction variable):0
Visibility: greater than 7 mile(s):0
Temperature: 37 F (3 C)
Dew Point: 19 F (-7 C)
Relative Humidity: 47%
Pressure (altimeter): 29.06 in. Hg (0984 hPa)
ob: ENTO 022220Z AUTO 31009KT 280V350 9999 NCD 03/M07 Q0984
cycle: 22

Station Type Date Time Source
ENTO TAF 2020/04/02 18:54 UTC NOAA

TAF COR ENTO 0218/0318 22020G30KT 9999 FEW030 SCT050
BECMG 0218/0220 28012KT
TEMPO 0218/0222 30020G30KT PROB40
TEMPO 0309/0316 30015G25KT

Example: see airport list